Time;durP1;ratioP1;P1;durP2;ratioP2;P2;SDS_P1;SDS_P2;PMS_P1;PMS_P2;Temp;Humidity;BMP_temperature;BMP_pressure;BME280_temperature;BME280_humidity;BME280_pressure;Samples;Min_cycle;Max_cycle;Signal;HPM_P1;HPM_P2
2024/03/31 00:01:13;;;;;;;20.08;12.80;;;;;;;;;;5034221;28;20048;-79
2024/03/31 00:03:40;;;;;;;20.42;12.95;;;;;;;;;;5040014;28;20404;-79
2024/03/31 00:06:05;;;;;;;21.50;13.45;;;;;;;;;;5043086;28;20028;-80
2024/03/31 00:08:31;;;;;;;18.83;12.90;;;;;;;;;;5036847;28;20077;-79
2024/03/31 00:11:06;;;;;;;19.23;12.65;;;;;;;;;;5051650;28;20033;-80
2024/03/31 00:13:32;;;;;;;19.23;12.23;;;;;;;;;;5057990;28;20028;-82
2024/03/31 00:15:58;;;;;;;18.33;12.55;;;;;;;;;;5043657;28;20388;-82
2024/03/31 00:18:24;;;;;;;18.65;11.80;;;;;;;;;;5061938;28;20353;-79
2024/03/31 00:20:57;;;;;;;19.92;13.15;;;;;;;;;;5063865;28;20036;-79
2024/03/31 00:23:24;;;;;;;18.95;12.63;;;;;;;;;;5039224;28;20047;-85
2024/03/31 00:26:02;;;;;;;18.42;12.93;;;;;;;;;;5041338;28;20029;-84
2024/03/31 00:28:27;;;;;;;17.42;12.02;;;;;;;;;;5035671;28;20035;-80
2024/03/31 00:30:58;;;;;;;18.95;13.40;;;;;;;;;;5033659;28;20036;-78
2024/03/31 00:33:24;;;;;;;19.15;12.80;;;;;;;;;;5043241;28;20032;-84
2024/03/31 00:35:57;;;;;;;19.65;13.43;;;;;;;;;;5041071;28;20021;-84
2024/03/31 00:38:24;;;;;;;17.85;12.55;;;;;;;;;;5039969;28;20040;-84
2024/03/31 00:40:49;;;;;;;22.05;12.73;;;;;;;;;;5036487;28;20029;-84
2024/03/31 00:43:16;;;;;;;18.02;12.30;;;;;;;;;;5058807;28;20076;-83
2024/03/31 00:45:42;;;;;;;17.38;12.93;;;;;;;;;;5039829;28;20411;-84
2024/03/31 00:48:08;;;;;;;17.15;12.63;;;;;;;;;;5042505;28;20018;-84
2024/03/31 00:50:35;;;;;;;15.25;11.40;;;;;;;;;;5060247;28;20065;-84
2024/03/31 00:53:00;;;;;;;16.17;11.30;;;;;;;;;;5040335;28;20451;-86
2024/03/31 00:55:25;;;;;;;15.68;9.88;;;;;;;;;;5040497;28;20022;-87
2024/03/31 00:57:51;;;;;;;12.93;9.38;;;;;;;;;;5054043;28;20433;-84
2024/03/31 01:00:19;;;;;;;13.82;9.98;;;;;;;;;;5041446;28;20391;-79
2024/03/31 01:02:45;;;;;;;13.55;9.43;;;;;;;;;;5034984;28;20044;-78
2024/03/31 01:07:45;;;;;;;13.20;9.57;;;;;;;;;;5088681;28;20093;-79
2024/03/31 01:10:13;;;;;;;13.45;9.75;;;;;;;;;;5077804;28;20050;-79
2024/03/31 01:12:38;;;;;;;13.45;10.00;;;;;;;;;;5076896;28;20024;-79
2024/03/31 01:15:04;;;;;;;13.40;9.38;;;;;;;;;;5072193;28;20070;-79
2024/03/31 01:17:30;;;;;;;13.00;9.80;;;;;;;;;;5070380;28;20023;-78
2024/03/31 01:19:56;;;;;;;14.60;10.25;;;;;;;;;;5075160;28;20072;-79
2024/03/31 01:22:24;;;;;;;13.80;10.15;;;;;;;;;;5087497;28;20107;-81
2024/03/31 01:24:49;;;;;;;14.55;10.63;;;;;;;;;;5074578;28;20047;-81
2024/03/31 01:27:14;;;;;;;15.25;10.02;;;;;;;;;;5070983;28;20446;-79
2024/03/31 01:29:40;;;;;;;14.27;10.13;;;;;;;;;;5068645;28;20035;-78
2024/03/31 01:32:05;;;;;;;14.25;10.25;;;;;;;;;;5091696;28;20031;-78
2024/03/31 01:34:34;;;;;;;13.68;9.70;;;;;;;;;;5092001;28;20387;-78
2024/03/31 01:37:01;;;;;;;12.95;9.82;;;;;;;;;;5088531;28;20016;-80
2024/03/31 01:39:26;;;;;;;13.85;9.55;;;;;;;;;;5074763;28;20032;-78
2024/03/31 01:41:52;;;;;;;13.38;9.82;;;;;;;;;;5087352;28;20030;-78
2024/03/31 01:44:17;;;;;;;13.15;9.30;;;;;;;;;;5090109;28;20955;-78
2024/03/31 01:46:42;;;;;;;13.27;9.55;;;;;;;;;;5068669;28;20058;-80
2024/03/31 01:49:08;;;;;;;13.93;9.75;;;;;;;;;;5065901;28;20120;-80
2024/03/31 01:51:33;;;;;;;13.07;9.60;;;;;;;;;;5096333;28;20032;-80
2024/03/31 01:53:59;;;;;;;14.23;9.73;;;;;;;;;;5075798;28;20798;-80
2024/03/31 01:56:24;;;;;;;12.05;8.68;;;;;;;;;;5090209;28;20495;-80
2024/03/31 01:58:50;;;;;;;14.85;10.35;;;;;;;;;;5091205;28;20020;-80
2024/03/31 02:01:15;;;;;;;13.38;9.80;;;;;;;;;;5091217;28;20032;-81
2024/03/31 02:03:44;;;;;;;14.05;10.13;;;;;;;;;;5090976;28;20400;-80
2024/03/31 02:06:10;;;;;;;14.15;10.05;;;;;;;;;;5070229;28;20470;-80
2024/03/31 02:08:36;;;;;;;13.68;9.90;;;;;;;;;;5069445;28;20016;-81
2024/03/31 02:11:01;;;;;;;14.32;9.93;;;;;;;;;;5071638;28;20119;-79
2024/03/31 02:13:27;;;;;;;13.38;9.68;;;;;;;;;;5065278;28;20025;-78
2024/03/31 02:15:53;;;;;;;13.68;10.32;;;;;;;;;;5072840;28;20028;-78
2024/03/31 02:18:19;;;;;;;14.15;10.07;;;;;;;;;;5068276;28;20029;-79
2024/03/31 02:20:44;;;;;;;13.05;9.27;;;;;;;;;;5068024;28;20134;-80
2024/03/31 02:23:10;;;;;;;13.52;9.75;;;;;;;;;;5070719;28;20024;-79
2024/03/31 02:25:38;;;;;;;14.75;9.77;;;;;;;;;;5081341;28;20389;-79
2024/03/31 02:28:04;;;;;;;12.73;9.70;;;;;;;;;;5069877;28;20025;-80
2024/03/31 02:30:29;;;;;;;12.50;9.40;;;;;;;;;;5067882;28;20395;-79
2024/03/31 02:32:58;;;;;;;12.82;9.07;;;;;;;;;;5082469;28;20044;-79
2024/03/31 02:35:23;;;;;;;13.82;9.95;;;;;;;;;;5068935;28;20500;-80
2024/03/31 02:37:49;;;;;;;12.98;9.63;;;;;;;;;;5065914;28;20028;-84
2024/03/31 02:40:15;;;;;;;13.60;10.07;;;;;;;;;;5069218;28;20024;-84
2024/03/31 02:42:42;;;;;;;12.90;9.70;;;;;;;;;;5070122;28;20028;-79
2024/03/31 02:45:09;;;;;;;14.00;10.10;;;;;;;;;;5067779;28;20020;-79
2024/03/31 02:47:35;;;;;;;12.90;9.85;;;;;;;;;;5070890;28;20037;-79
2024/03/31 02:50:01;;;;;;;13.82;10.20;;;;;;;;;;5070897;28;20039;-79
2024/03/31 02:52:26;;;;;;;13.98;10.07;;;;;;;;;;5072386;28;20035;-79
2024/03/31 02:54:53;;;;;;;15.80;10.60;;;;;;;;;;5071153;28;20093;-79
2024/03/31 02:57:19;;;;;;;15.30;10.93;;;;;;;;;;5068673;28;20059;-80
2024/03/31 02:59:45;;;;;;;15.75;10.93;;;;;;;;;;5072203;28;20441;-80
2024/03/31 03:02:10;;;;;;;14.63;10.30;;;;;;;;;;5068536;28;20055;-81
2024/03/31 03:04:37;;;;;;;16.13;10.55;;;;;;;;;;5070710;28;20037;-79
2024/03/31 03:07:05;;;;;;;14.25;9.82;;;;;;;;;;5086693;28;20036;-79
2024/03/31 03:09:30;;;;;;;16.77;10.70;;;;;;;;;;5053928;28;20036;-79
2024/03/31 03:11:56;;;;;;;15.80;10.50;;;;;;;;;;5062865;28;20033;-80
2024/03/31 03:14:22;;;;;;;14.27;10.38;;;;;;;;;;5072688;28;20071;-79
2024/03/31 03:16:50;;;;;;;14.63;10.02;;;;;;;;;;5068493;28;20051;-79
2024/03/31 03:19:15;;;;;;;14.50;9.77;;;;;;;;;;5070178;28;20029;-80
2024/03/31 03:21:41;;;;;;;12.82;9.02;;;;;;;;;;5067628;28;20361;-79
2024/03/31 03:24:06;;;;;;;12.90;8.95;;;;;;;;;;5066793;28;20468;-79
2024/03/31 03:26:32;;;;;;;12.88;8.38;;;;;;;;;;5071946;28;20821;-79
2024/03/31 03:28:58;;;;;;;13.65;8.23;;;;;;;;;;5064608;28;20077;-80
2024/03/31 03:31:24;;;;;;;11.73;8.00;;;;;;;;;;5072693;28;20032;-81
2024/03/31 03:33:49;;;;;;;13.43;8.43;;;;;;;;;;5072578;28;20028;-79
2024/03/31 03:36:15;;;;;;;12.57;8.23;;;;;;;;;;5064271;28;20025;-80
2024/03/31 03:38:41;;;;;;;11.43;8.05;;;;;;;;;;5065394;28;20044;-79
2024/03/31 03:41:06;;;;;;;13.15;8.60;;;;;;;;;;5064841;28;20472;-79
2024/03/31 03:43:35;;;;;;;12.98;8.75;;;;;;;;;;5068909;28;20021;-79
2024/03/31 03:46:01;;;;;;;12.02;8.43;;;;;;;;;;5070739;28;20036;-79
2024/03/31 03:48:30;;;;;;;12.13;8.43;;;;;;;;;;5050642;28;20029;-79
2024/03/31 03:51:00;;;;;;;13.13;8.65;;;;;;;;;;5068699;28;20043;-79
2024/03/31 03:53:25;;;;;;;12.68;8.63;;;;;;;;;;5071316;28;20032;-81
2024/03/31 03:55:51;;;;;;;11.48;8.40;;;;;;;;;;5069299;28;20086;-81
2024/03/31 03:58:16;;;;;;;13.45;8.50;;;;;;;;;;5087262;28;20031;-82
2024/03/31 04:00:42;;;;;;;12.32;8.57;;;;;;;;;;5069120;28;20051;-87
2024/03/31 04:03:09;;;;;;;12.80;8.95;;;;;;;;;;5067392;28;20025;-86
2024/03/31 04:05:34;;;;;;;11.00;8.23;;;;;;;;;;5067224;28;20070;-87
2024/03/31 04:08:00;;;;;;;10.93;8.05;;;;;;;;;;5064974;28;20025;-85
2024/03/31 04:10:27;;;;;;;11.48;8.07;;;;;;;;;;5066977;28;20089;-86
2024/03/31 04:12:52;;;;;;;12.20;8.32;;;;;;;;;;5067505;28;20025;-86
2024/03/31 04:15:17;;;;;;;10.52;7.45;;;;;;;;;;5068582;28;20069;-86
2024/03/31 04:17:43;;;;;;;11.15;7.75;;;;;;;;;;5066929;28;20039;-87
2024/03/31 04:20:08;;;;;;;10.43;6.90;;;;;;;;;;5066075;28;20040;-86
2024/03/31 04:22:34;;;;;;;9.63;7.00;;;;;;;;;;5060719;28;20020;-80
2024/03/31 04:25:00;;;;;;;10.25;6.97;;;;;;;;;;5064536;28;20078;-80
2024/03/31 04:27:25;;;;;;;10.30;7.18;;;;;;;;;;5065261;28;20479;-79
2024/03/31 04:29:51;;;;;;;9.65;6.88;;;;;;;;;;5067214;28;20181;-80
2024/03/31 04:32:16;;;;;;;10.23;7.00;;;;;;;;;;5066143;28;20033;-80
2024/03/31 04:34:42;;;;;;;9.57;6.80;;;;;;;;;;5068879;28;20654;-80
2024/03/31 04:37:07;;;;;;;10.52;6.85;;;;;;;;;;5066788;28;20017;-80
2024/03/31 04:39:33;;;;;;;9.40;6.55;;;;;;;;;;5067116;28;20028;-80
2024/03/31 04:41:58;;;;;;;10.05;5.93;;;;;;;;;;5067165;28;20105;-81
2024/03/31 04:44:24;;;;;;;9.13;6.32;;;;;;;;;;5068018;28;20024;-80
2024/03/31 04:46:50;;;;;;;10.35;7.15;;;;;;;;;;5068449;28;20024;-79
2024/03/31 04:49:16;;;;;;;9.50;7.10;;;;;;;;;;5067640;28;20032;-80
2024/03/31 04:51:42;;;;;;;9.98;6.72;;;;;;;;;;5065276;28;20024;-85
2024/03/31 04:54:08;;;;;;;8.90;6.80;;;;;;;;;;5066354;28;20024;-86
2024/03/31 04:56:33;;;;;;;9.18;6.55;;;;;;;;;;5070441;28;20088;-86
2024/03/31 04:58:58;;;;;;;9.38;6.20;;;;;;;;;;5066399;28;20020;-86
2024/03/31 05:01:24;;;;;;;10.35;6.70;;;;;;;;;;5069526;28;20024;-85
2024/03/31 05:03:49;;;;;;;8.93;6.22;;;;;;;;;;5067136;28;20059;-85
2024/03/31 05:06:15;;;;;;;9.45;6.55;;;;;;;;;;5072829;28;20025;-79
2024/03/31 05:08:40;;;;;;;9.15;6.15;;;;;;;;;;5069047;28;20024;-86
2024/03/31 05:11:06;;;;;;;10.23;6.38;;;;;;;;;;5068677;28;20032;-86
2024/03/31 05:13:32;;;;;;;9.85;6.90;;;;;;;;;;5065050;28;20025;-86
2024/03/31 05:15:58;;;;;;;10.00;6.68;;;;;;;;;;5071846;28;20466;-84
2024/03/31 05:18:25;;;;;;;8.13;6.07;;;;;;;;;;5071603;28;20099;-81
2024/03/31 05:21:02;;;;;;;8.32;6.15;;;;;;;;;;5067160;28;20039;-82
2024/03/31 05:23:28;;;;;;;9.10;6.43;;;;;;;;;;5065834;28;20068;-82
2024/03/31 05:25:55;;;;;;;8.77;6.30;;;;;;;;;;5067850;28;20473;-80
2024/03/31 05:28:21;;;;;;;9.25;6.60;;;;;;;;;;5069634;28;20013;-79
2024/03/31 05:30:47;;;;;;;10.30;6.47;;;;;;;;;;5070044;28;20033;-79
2024/03/31 05:33:13;;;;;;;9.73;5.97;;;;;;;;;;5071332;28;20503;-79
2024/03/31 05:35:43;;;;;;;10.02;6.43;;;;;;;;;;5068860;28;20403;-79
2024/03/31 05:38:10;;;;;;;9.35;7.05;;;;;;;;;;5074659;28;20499;-79
2024/03/31 05:40:42;;;;;;;9.55;7.18;;;;;;;;;;5072238;28;20025;-79
2024/03/31 05:43:08;;;;;;;10.73;7.85;;;;;;;;;;5072246;28;20474;-79
2024/03/31 05:45:34;;;;;;;11.38;7.95;;;;;;;;;;5068651;28;20028;-80
2024/03/31 05:48:07;;;;;;;11.68;8.60;;;;;;;;;;5071749;28;20159;-79
2024/03/31 05:50:35;;;;;;;12.55;7.82;;;;;;;;;;5067882;28;20430;-80
2024/03/31 05:53:02;;;;;;;10.95;8.27;;;;;;;;;;5067739;28;20035;-79
2024/03/31 05:55:30;;;;;;;12.55;8.90;;;;;;;;;;5065290;28;20094;-79
2024/03/31 05:57:57;;;;;;;11.70;8.80;;;;;;;;;;5068573;28;20020;-79
2024/03/31 06:00:23;;;;;;;12.35;8.68;;;;;;;;;;5063294;28;20047;-80
2024/03/31 06:02:52;;;;;;;12.88;9.45;;;;;;;;;;5066945;28;20060;-79
2024/03/31 06:05:20;;;;;;;12.00;9.05;;;;;;;;;;5067494;28;20020;-79
2024/03/31 06:07:47;;;;;;;12.43;9.82;;;;;;;;;;5069311;28;20047;-79
2024/03/31 06:10:12;;;;;;;12.38;10.02;;;;;;;;;;5067259;28;20028;-82
2024/03/31 06:12:38;;;;;;;14.00;9.82;;;;;;;;;;5070644;28;20388;-82
2024/03/31 06:15:04;;;;;;;13.30;9.63;;;;;;;;;;5069035;28;20479;-79
2024/03/31 06:17:29;;;;;;;13.77;9.50;;;;;;;;;;5070083;28;20052;-80
2024/03/31 06:19:55;;;;;;;15.27;9.27;;;;;;;;;;5069297;28;20105;-86
2024/03/31 06:22:23;;;;;;;13.07;9.73;;;;;;;;;;5069805;28;20025;-86
2024/03/31 06:24:49;;;;;;;14.40;10.13;;;;;;;;;;5067654;28;20369;-85
2024/03/31 06:27:14;;;;;;;14.20;10.27;;;;;;;;;;5063932;28;20028;-85
2024/03/31 06:29:40;;;;;;;14.02;9.90;;;;;;;;;;5066226;28;20028;-80
2024/03/31 06:32:08;;;;;;;13.60;9.80;;;;;;;;;;5071902;28;20047;-80
2024/03/31 06:34:33;;;;;;;14.40;10.23;;;;;;;;;;5052457;28;20064;-79
2024/03/31 06:36:59;;;;;;;14.48;9.98;;;;;;;;;;5071816;28;20036;-80
2024/03/31 06:39:24;;;;;;;13.55;9.70;;;;;;;;;;5070516;28;20522;-80
2024/03/31 06:41:50;;;;;;;15.27;10.90;;;;;;;;;;5065546;28;20078;-80
2024/03/31 06:44:15;;;;;;;15.18;10.93;;;;;;;;;;5069719;28;20448;-79
2024/03/31 06:46:40;;;;;;;16.17;11.23;;;;;;;;;;5071357;28;20107;-80
2024/03/31 06:49:09;;;;;;;16.02;11.35;;;;;;;;;;5068854;28;20129;-79
2024/03/31 06:51:34;;;;;;;17.10;11.88;;;;;;;;;;5066567;28;20065;-80
2024/03/31 06:54:00;;;;;;;17.15;12.30;;;;;;;;;;5065926;28;20048;-83
2024/03/31 06:56:25;;;;;;;16.90;12.15;;;;;;;;;;5064494;28;20033;-82
2024/03/31 06:58:50;;;;;;;17.98;12.43;;;;;;;;;;5063721;28;20036;-82
2024/03/31 07:01:16;;;;;;;17.55;13.18;;;;;;;;;;5065047;28;20035;-82
2024/03/31 07:03:43;;;;;;;20.88;14.55;;;;;;;;;;5068135;28;20128;-82
2024/03/31 07:06:08;;;;;;;20.90;14.55;;;;;;;;;;5068612;28;20082;-81
2024/03/31 07:08:33;;;;;;;20.30;15.13;;;;;;;;;;5067652;28;20028;-82
2024/03/31 07:10:59;;;;;;;21.38;14.98;;;;;;;;;;5065634;28;20033;-82
2024/03/31 07:13:24;;;;;;;22.50;15.98;;;;;;;;;;5069448;28;20028;-82
2024/03/31 07:15:57;;;;;;;23.67;16.52;;;;;;;;;;5065241;28;20025;-82
2024/03/31 07:18:25;;;;;;;23.02;16.25;;;;;;;;;;5066862;28;20116;-82
2024/03/31 07:20:50;;;;;;;24.63;15.98;;;;;;;;;;5063354;28;20357;-82
2024/03/31 07:23:16;;;;;;;23.88;16.35;;;;;;;;;;5066705;28;20040;-82
2024/03/31 07:25:44;;;;;;;22.55;15.88;;;;;;;;;;5067570;28;20017;-82
2024/03/31 07:28:12;;;;;;;24.00;16.75;;;;;;;;;;5065110;28;20403;-82
2024/03/31 07:30:38;;;;;;;23.65;17.23;;;;;;;;;;5064761;28;20044;-82
2024/03/31 07:33:03;;;;;;;25.30;17.55;;;;;;;;;;5065420;28;20472;-81
2024/03/31 07:35:30;;;;;;;25.05;18.02;;;;;;;;;;5061303;28;20365;-82
2024/03/31 07:37:58;;;;;;;24.05;18.13;;;;;;;;;;5066518;28;20115;-82
2024/03/31 07:40:24;;;;;;;25.23;17.05;;;;;;;;;;5070530;28;20487;-81
2024/03/31 07:42:49;;;;;;;25.98;17.95;;;;;;;;;;5065437;28;20031;-81
2024/03/31 07:45:15;;;;;;;26.50;18.20;;;;;;;;;;5064111;28;20111;-82
2024/03/31 07:47:43;;;;;;;24.25;17.40;;;;;;;;;;5065940;28;20028;-81
2024/03/31 07:50:08;;;;;;;26.60;19.08;;;;;;;;;;5063849;28;20051;-82
2024/03/31 07:52:38;;;;;;;25.75;18.27;;;;;;;;;;5062511;28;20480;-81
2024/03/31 07:55:05;;;;;;;27.10;18.77;;;;;;;;;;5063558;28;20035;-81
2024/03/31 07:57:31;;;;;;;28.13;18.98;;;;;;;;;;5067614;28;20476;-80
2024/03/31 07:59:57;;;;;;;25.55;18.55;;;;;;;;;;5069409;28;20054;-80
2024/03/31 08:02:22;;;;;;;27.88;19.10;;;;;;;;;;5061209;28;20036;-81
2024/03/31 08:04:50;;;;;;;24.55;17.67;;;;;;;;;;5070143;28;20387;-81
2024/03/31 08:07:15;;;;;;;26.02;19.10;;;;;;;;;;5065277;28;20101;-81
2024/03/31 08:09:41;;;;;;;25.10;18.17;;;;;;;;;;5066513;28;20040;-80
2024/03/31 08:12:06;;;;;;;23.98;18.00;;;;;;;;;;5066538;28;20411;-81
2024/03/31 08:14:32;;;;;;;24.13;17.50;;;;;;;;;;5068098;28;20391;-80
2024/03/31 08:16:58;;;;;;;26.50;18.52;;;;;;;;;;5069976;28;20034;-80
2024/03/31 08:19:24;;;;;;;26.92;18.67;;;;;;;;;;5052865;28;20105;-81
2024/03/31 08:21:50;;;;;;;24.60;17.92;;;;;;;;;;5069071;28;20024;-80
2024/03/31 08:24:16;;;;;;;26.10;18.52;;;;;;;;;;5063476;28;20086;-80
2024/03/31 08:26:41;;;;;;;26.80;17.83;;;;;;;;;;5066132;28;20028;-80
2024/03/31 08:29:07;;;;;;;26.30;17.63;;;;;;;;;;5066285;28;20017;-80
2024/03/31 08:31:32;;;;;;;25.48;16.65;;;;;;;;;;5068433;28;20058;-81
2024/03/31 08:34:01;;;;;;;23.05;16.63;;;;;;;;;;5068857;28;20070;-80
2024/03/31 08:36:26;;;;;;;22.98;16.73;;;;;;;;;;5070734;28;20029;-80
2024/03/31 08:38:52;;;;;;;24.67;15.88;;;;;;;;;;5065564;28;20024;-80
2024/03/31 08:41:48;;;;;;;20.95;15.18;;;;;;;;;;5062277;28;20107;-80
2024/03/31 08:44:16;;;;;;;22.10;15.13;;;;;;;;;;5043380;28;20488;-80
2024/03/31 08:46:42;;;;;;;22.25;15.55;;;;;;;;;;5083793;28;20056;-80
2024/03/31 08:49:09;;;;;;;23.60;14.88;;;;;;;;;;5070451;28;20460;-81
2024/03/31 08:51:34;;;;;;;20.27;13.48;;;;;;;;;;5063968;28;20025;-80
2024/03/31 08:54:00;;;;;;;21.88;14.82;;;;;;;;;;5069799;28;20031;-85
2024/03/31 08:56:25;;;;;;;21.23;14.73;;;;;;;;;;5065725;28;20028;-85
2024/03/31 08:58:52;;;;;;;22.23;13.98;;;;;;;;;;5060230;28;20159;-85
2024/03/31 09:01:20;;;;;;;21.70;13.88;;;;;;;;;;5085638;28;20420;-79
2024/03/31 09:03:48;;;;;;;23.20;14.27;;;;;;;;;;5070801;28;20464;-79
2024/03/31 09:06:14;;;;;;;20.50;13.80;;;;;;;;;;5066344;28;20025;-79
2024/03/31 09:08:42;;;;;;;20.63;14.45;;;;;;;;;;5061183;28;20012;-79
2024/03/31 09:11:08;;;;;;;20.38;14.05;;;;;;;;;;5063492;28;20431;-79
2024/03/31 09:13:35;;;;;;;20.42;14.25;;;;;;;;;;5064505;28;20035;-80
2024/03/31 09:16:03;;;;;;;19.95;14.02;;;;;;;;;;5065599;28;20543;-80
2024/03/31 09:18:29;;;;;;;19.33;12.48;;;;;;;;;;5068209;28;20024;-80
2024/03/31 09:20:55;;;;;;;20.15;13.43;;;;;;;;;;5068849;28;20032;-80
2024/03/31 09:23:21;;;;;;;19.13;12.38;;;;;;;;;;5065099;28;20100;-79
2024/03/31 09:25:47;;;;;;;19.75;12.32;;;;;;;;;;5066393;28;20151;-81
2024/03/31 09:28:14;;;;;;;18.35;11.40;;;;;;;;;;5070150;28;20555;-80
2024/03/31 09:30:39;;;;;;;18.40;11.70;;;;;;;;;;5075746;28;20059;-80
2024/03/31 09:33:05;;;;;;;19.83;11.18;;;;;;;;;;5067857;28;20029;-79
2024/03/31 09:35:32;;;;;;;16.60;10.88;;;;;;;;;;5068039;28;20035;-80
2024/03/31 09:37:58;;;;;;;18.17;10.45;;;;;;;;;;5072553;28;20031;-80
2024/03/31 09:40:25;;;;;;;18.65;10.85;;;;;;;;;;5073968;28;20480;-81
2024/03/31 09:42:51;;;;;;;17.23;10.55;;;;;;;;;;5072525;28;20040;-80
2024/03/31 09:45:17;;;;;;;14.10;9.50;;;;;;;;;;5068908;28;20540;-80
2024/03/31 09:47:48;;;;;;;15.80;9.15;;;;;;;;;;5067680;28;20032;-80
2024/03/31 09:50:23;;;;;;;15.30;9.68;;;;;;;;;;5069108;28;20112;-80
2024/03/31 09:52:58;;;;;;;14.73;10.13;;;;;;;;;;5085168;28;20060;-80
2024/03/31 09:55:29;;;;;;;17.38;10.07;;;;;;;;;;5071569;28;20098;-81
2024/03/31 09:57:57;;;;;;;17.45;11.43;;;;;;;;;;5071795;28;20103;-80
2024/03/31 10:00:24;;;;;;;19.98;11.43;;;;;;;;;;5072350;28;20028;-82
2024/03/31 10:03:16;;;;;;;17.50;11.73;;;;;;;;;;5072918;28;20101;-81
2024/03/31 10:05:43;;;;;;;19.55;11.63;;;;;;;;;;5068179;28;20085;-80
2024/03/31 10:08:09;;;;;;;17.50;10.90;;;;;;;;;;5061434;28;20025;-81
2024/03/31 10:10:38;;;;;;;19.15;10.85;;;;;;;;;;5070999;28;20048;-81
2024/03/31 10:13:05;;;;;;;18.85;11.10;;;;;;;;;;5072511;28;20578;-80
2024/03/31 10:15:32;;;;;;;16.13;9.70;;;;;;;;;;5071029;28;20033;-81
2024/03/31 10:17:59;;;;;;;16.40;8.48;;;;;;;;;;5070997;28;20025;-81
2024/03/31 10:20:26;;;;;;;14.02;7.88;;;;;;;;;;5068269;28;20036;-80
2024/03/31 10:22:52;;;;;;;14.70;6.22;;;;;;;;;;5062983;28;20033;-78
2024/03/31 10:25:19;;;;;;;11.02;6.60;;;;;;;;;;5068137;28;20031;-79
2024/03/31 10:27:46;;;;;;;14.40;7.45;;;;;;;;;;5059723;28;20055;-78
2024/03/31 10:30:11;;;;;;;14.18;7.00;;;;;;;;;;5069419;28;20029;-78
2024/03/31 10:32:38;;;;;;;13.05;7.45;;;;;;;;;;5068462;28;20131;-78
2024/03/31 10:35:05;;;;;;;12.93;7.03;;;;;;;;;;5069175;28;20602;-80
2024/03/31 10:37:33;;;;;;;15.70;7.07;;;;;;;;;;5070993;28;20016;-78
2024/03/31 10:40:00;;;;;;;15.30;7.32;;;;;;;;;;5071081;28;20391;-79
2024/03/31 10:42:26;;;;;;;14.38;6.28;;;;;;;;;;5067105;28;20033;-78
2024/03/31 10:44:52;;;;;;;10.60;6.00;;;;;;;;;;5068430;28;20519;-79
2024/03/31 10:47:18;;;;;;;14.93;6.55;;;;;;;;;;5069584;28;20426;-79
2024/03/31 10:49:44;;;;;;;8.43;4.60;;;;;;;;;;5069369;28;20047;-78
2024/03/31 10:52:14;;;;;;;12.27;4.85;;;;;;;;;;5067832;28;20472;-78
2024/03/31 10:54:40;;;;;;;9.73;4.35;;;;;;;;;;5081297;28;20162;-78
2024/03/31 10:57:11;;;;;;;14.52;4.30;;;;;;;;;;5071135;28;20433;-82
2024/03/31 10:59:43;;;;;;;11.75;4.30;;;;;;;;;;5068050;28;20025;-79
2024/03/31 11:02:25;;;;;;;12.48;5.13;;;;;;;;;;5067328;28;20032;-79
2024/03/31 11:05:05;;;;;;;8.10;4.20;;;;;;;;;;5086773;28;20484;-78
2024/03/31 11:07:34;;;;;;;8.23;3.85;;;;;;;;;;5067898;28;20040;-78
2024/03/31 11:10:01;;;;;;;8.32;3.88;;;;;;;;;;5071572;28;20028;-80
2024/03/31 11:12:30;;;;;;;11.80;3.17;;;;;;;;;;5069335;28;20502;-78
2024/03/31 11:14:56;;;;;;;9.15;3.38;;;;;;;;;;5068764;28;20468;-79
2024/03/31 11:17:23;;;;;;;8.35;2.67;;;;;;;;;;5067465;28;20041;-78
2024/03/31 11:19:51;;;;;;;10.32;3.72;;;;;;;;;;5070634;28;20024;-80
2024/03/31 11:22:17;;;;;;;6.68;2.72;;;;;;;;;;5068531;28;20509;-79
2024/03/31 11:24:44;;;;;;;10.43;2.60;;;;;;;;;;5067520;28;20064;-81
2024/03/31 11:27:11;;;;;;;11.70;2.67;;;;;;;;;;5052594;28;20040;-82
2024/03/31 11:29:37;;;;;;;7.50;2.35;;;;;;;;;;5069833;28;20032;-81
2024/03/31 11:32:03;;;;;;;7.60;2.20;;;;;;;;;;5068198;28;20502;-81
2024/03/31 11:34:28;;;;;;;8.07;2.17;;;;;;;;;;5080822;28;20029;-81
2024/03/31 11:36:54;;;;;;;11.30;2.60;;;;;;;;;;5066034;28;20039;-82
2024/03/31 11:39:19;;;;;;;8.68;2.65;;;;;;;;;;5053383;28;20020;-81
2024/03/31 11:41:46;;;;;;;8.85;2.05;;;;;;;;;;5061511;28;20082;-80
2024/03/31 11:44:13;;;;;;;7.88;1.80;;;;;;;;;;5063002;28;20025;-84
2024/03/31 11:46:38;;;;;;;8.18;1.80;;;;;;;;;;5064811;28;20059;-84
2024/03/31 11:49:04;;;;;;;9.00;1.90;;;;;;;;;;5059795;28;20052;-84
2024/03/31 11:51:31;;;;;;;6.57;1.40;;;;;;;;;;5064261;28;20025;-85
2024/03/31 11:53:57;;;;;;;6.85;1.45;;;;;;;;;;5066823;28;20040;-84
2024/03/31 11:56:22;;;;;;;10.90;1.30;;;;;;;;;;5082989;28;20016;-84
2024/03/31 11:58:48;;;;;;;6.43;1.13;;;;;;;;;;5066210;28;20054;-85
2024/03/31 12:01:22;;;;;;;8.40;1.15;;;;;;;;;;5065899;28;20036;-84
2024/03/31 12:03:57;;;;;;;8.90;0.90;;;;;;;;;;5063039;28;20050;-84
2024/03/31 12:06:24;;;;;;;8.57;1.50;;;;;;;;;;5065693;28;20535;-84
2024/03/31 12:08:50;;;;;;;10.45;1.23;;;;;;;;;;5062090;28;20086;-85
2024/03/31 12:11:19;;;;;;;6.50;1.33;;;;;;;;;;5058457;28;20036;-82
2024/03/31 12:13:52;;;;;;;10.00;2.33;;;;;;;;;;5062947;28;20477;-85
2024/03/31 12:16:19;;;;;;;8.75;0.93;;;;;;;;;;5065255;28;20056;-84
2024/03/31 12:18:46;;;;;;;8.00;1.20;;;;;;;;;;5063727;28;20029;-84
2024/03/31 12:21:17;;;;;;;8.20;1.98;;;;;;;;;;5058970;28;20028;-82
2024/03/31 12:23:43;;;;;;;6.93;1.23;;;;;;;;;;5063561;28;20559;-85
2024/03/31 12:26:09;;;;;;;7.93;1.10;;;;;;;;;;5062704;28;20103;-83
2024/03/31 12:28:34;;;;;;;6.85;1.10;;;;;;;;;;5063608;28;20058;-84
2024/03/31 12:31:00;;;;;;;5.10;0.93;;;;;;;;;;5059695;28;20032;-82
2024/03/31 12:33:25;;;;;;;9.57;1.00;;;;;;;;;;5060122;28;20036;-84
2024/03/31 12:35:53;;;;;;;6.95;1.00;;;;;;;;;;5063550;28;20024;-85
2024/03/31 12:38:18;;;;;;;6.97;1.23;;;;;;;;;;5061759;28;22648;-83
2024/03/31 12:40:44;;;;;;;8.50;1.17;;;;;;;;;;5057089;28;20043;-83
2024/03/31 12:43:22;;;;;;;10.63;1.50;;;;;;;;;;5061896;28;20280;-77
2024/03/31 12:45:48;;;;;;;4.10;1.15;;;;;;;;;;5061555;28;20417;-77
2024/03/31 12:48:14;;;;;;;7.50;0.82;;;;;;;;;;5063262;28;20031;-80
2024/03/31 12:50:51;;;;;;;7.15;0.73;;;;;;;;;;5062162;28;20499;-81
2024/03/31 12:53:17;;;;;;;8.30;0.80;;;;;;;;;;5063978;28;20033;-78
2024/03/31 12:55:43;;;;;;;4.35;0.65;;;;;;;;;;5066628;28;20028;-77
2024/03/31 12:58:09;;;;;;;6.65;0.90;;;;;;;;;;5066943;28;20017;-79
2024/03/31 13:00:42;;;;;;;1.63;0.68;;;;;;;;;;5056650;28;20093;-79
2024/03/31 13:03:11;;;;;;;6.63;0.98;;;;;;;;;;5067425;28;20509;-80
2024/03/31 13:05:38;;;;;;;8.13;0.98;;;;;;;;;;5069961;28;20033;-81
2024/03/31 13:08:08;;;;;;;9.68;1.10;;;;;;;;;;5059152;28;20037;-78
2024/03/31 13:10:34;;;;;;;5.03;1.08;;;;;;;;;;5061719;28;20086;-77
2024/03/31 13:13:05;;;;;;;5.72;1.30;;;;;;;;;;5068041;28;20147;-78
2024/03/31 13:15:31;;;;;;;9.57;1.98;;;;;;;;;;5069602;28;20032;-78
2024/03/31 13:17:56;;;;;;;5.43;1.20;;;;;;;;;;5062191;28;20163;-79
2024/03/31 13:20:22;;;;;;;4.95;1.30;;;;;;;;;;5079411;28;20603;-79
2024/03/31 13:22:50;;;;;;;4.13;1.10;;;;;;;;;;5068710;28;20078;-80
2024/03/31 13:25:16;;;;;;;6.10;0.90;;;;;;;;;;5068689;28;20138;-78
2024/03/31 13:27:42;;;;;;;8.38;1.33;;;;;;;;;;5056917;28;20124;-79
2024/03/31 13:30:08;;;;;;;7.63;1.20;;;;;;;;;;5068721;28;20028;-78
2024/03/31 13:32:34;;;;;;;4.65;1.10;;;;;;;;;;5065321;28;20387;-78
2024/03/31 13:35:00;;;;;;;5.30;0.70;;;;;;;;;;5070309;28;20028;-77
2024/03/31 13:37:25;;;;;;;8.27;0.90;;;;;;;;;;5063398;28;20028;-80
2024/03/31 13:39:51;;;;;;;7.82;1.00;;;;;;;;;;5064965;28;20024;-78
2024/03/31 13:42:16;;;;;;;6.22;1.05;;;;;;;;;;5070064;28;20055;-78
2024/03/31 13:44:42;;;;;;;5.30;1.45;;;;;;;;;;5065476;28;20032;-77
2024/03/31 13:47:08;;;;;;;6.28;0.88;;;;;;;;;;5066128;28;20050;-80
2024/03/31 13:49:33;;;;;;;6.95;0.98;;;;;;;;;;5065218;28;20025;-78
2024/03/31 13:51:59;;;;;;;6.68;1.00;;;;;;;;;;5069206;28;20044;-80
2024/03/31 13:54:24;;;;;;;4.68;1.05;;;;;;;;;;5093975;28;20051;-80
2024/03/31 13:56:50;;;;;;;5.63;1.10;;;;;;;;;;5066595;28;20063;-80
2024/03/31 13:59:15;;;;;;;6.20;1.48;;;;;;;;;;5068753;28;20039;-80
2024/03/31 14:01:41;;;;;;;7.05;1.20;;;;;;;;;;5068719;28;20028;-80
2024/03/31 14:04:07;;;;;;;5.95;1.15;;;;;;;;;;5062207;28;20062;-80
2024/03/31 14:06:32;;;;;;;3.63;0.85;;;;;;;;;;5077270;28;20032;-80
2024/03/31 14:08:58;;;;;;;6.93;1.15;;;;;;;;;;5049257;28;20033;-79
2024/03/31 14:11:23;;;;;;;7.00;1.20;;;;;;;;;;5060550;28;20059;-82
2024/03/31 14:13:49;;;;;;;8.02;1.67;;;;;;;;;;5065750;28;20032;-79
2024/03/31 14:16:15;;;;;;;6.30;1.10;;;;;;;;;;5070853;28;20120;-79
2024/03/31 14:18:40;;;;;;;5.80;1.25;;;;;;;;;;5101479;28;20039;-78
2024/03/31 14:21:06;;;;;;;9.07;1.38;;;;;;;;;;5063496;28;20062;-79
2024/03/31 14:23:31;;;;;;;7.70;1.30;;;;;;;;;;5070401;28;20032;-79
2024/03/31 14:25:57;;;;;;;7.68;1.30;;;;;;;;;;5069862;28;20039;-79
2024/03/31 14:28:22;;;;;;;11.60;1.67;;;;;;;;;;5061030;28;20021;-78